Time;durP1;ratioP1;P1;durP2;ratioP2;P2;SDS_P1;SDS_P2;PMS_P1;PMS_P2;Temp;Humidity;BMP_temperature;BMP_pressure;BME280_temperature;BME280_humidity;BME280_pressure;Samples;Min_cycle;Max_cycle;Signal;HPM_P1;HPM_P2
2023/02/04 00:00:09;;;;;;;42.35;7.47;;;5.00;99.90;;;;;;5077657;28;20048;-70
2023/02/04 00:02:37;;;;;;;45.35;7.95;;;4.90;99.90;;;;;;5044795;28;20150;-70
2023/02/04 00:05:05;;;;;;;56.65;8.82;;;5.00;99.90;;;;;;5058858;28;20477;-70
2023/02/04 00:07:31;;;;;;;66.20;9.27;;;5.00;99.90;;;;;;5049543;28;20421;-71
2023/02/04 00:09:58;;;;;;;45.72;7.30;;;4.90;99.90;;;;;;5077339;28;20047;-70
2023/02/04 00:12:25;;;;;;;62.92;9.45;;;5.00;99.90;;;;;;5054247;28;20467;-71
2023/02/04 00:14:51;;;;;;;59.45;9.20;;;4.90;99.90;;;;;;5057866;28;20060;-71
2023/02/04 00:17:18;;;;;;;52.97;8.57;;;4.90;99.90;;;;;;5039589;28;20119;-71
2023/02/04 00:19:45;;;;;;;45.90;7.30;;;4.90;99.90;;;;;;5059000;28;20462;-71
2023/02/04 00:22:11;;;;;;;33.10;6.30;;;4.80;99.90;;;;;;5054790;28;20391;-71
2023/02/04 00:24:38;;;;;;;47.67;7.97;;;4.80;99.90;;;;;;5077259;28;20051;-71
2023/02/04 00:27:06;;;;;;;44.00;9.07;;;4.80;99.90;;;;;;5075210;28;20118;-69
2023/02/04 00:29:33;;;;;;;64.60;10.18;;;4.80;99.90;;;;;;5050366;28;20485;-71
2023/02/04 00:31:59;;;;;;;54.20;9.93;;;4.80;99.90;;;;;;5058792;28;20040;-71
2023/02/04 00:34:26;;;;;;;61.13;10.55;;;4.80;99.90;;;;;;5053415;28;20097;-71
2023/02/04 00:36:53;;;;;;;50.22;8.02;;;4.80;99.90;;;;;;5042231;28;20141;-70
2023/02/04 00:39:19;;;;;;;63.28;8.70;;;4.80;99.90;;;;;;5039063;28;20443;-71
2023/02/04 00:41:46;;;;;;;46.17;8.60;;;4.80;99.90;;;;;;5058697;28;20117;-70
2023/02/04 00:44:13;;;;;;;46.78;6.53;;;4.70;99.90;;;;;;5057024;28;20044;-70
2023/02/04 00:46:41;;;;;;;52.92;9.02;;;4.70;99.90;;;;;;5073825;28;20098;-69
2023/02/04 00:49:09;;;;;;;58.47;7.28;;;4.70;99.90;;;;;;5080157;28;20140;-69
2023/02/04 00:51:40;;;;;;;54.45;8.23;;;4.70;99.90;;;;;;5065667;28;20171;-69
2023/02/04 00:54:06;;;;;;;50.90;6.28;;;4.80;99.90;;;;;;5042840;28;21074;-70
2023/02/04 00:56:34;;;;;;;54.67;7.97;;;4.80;99.90;;;;;;5035269;28;20682;-70
2023/02/04 00:59:01;;;;;;;40.03;7.32;;;4.70;99.90;;;;;;5059544;28;20044;-71
2023/02/04 01:01:28;;;;;;;39.00;7.75;;;4.70;99.90;;;;;;5068233;28;20409;-71
2023/02/04 01:03:55;;;;;;;52.22;8.90;;;4.80;99.90;;;;;;5076299;28;20044;-70
2023/02/04 01:06:22;;;;;;;44.33;8.38;;;4.90;99.90;;;;;;5031756;28;20047;-71
2023/02/04 01:08:49;;;;;;;54.22;9.00;;;4.90;99.90;;;;;;5038176;28;20040;-70
2023/02/04 01:11:16;;;;;;;49.35;8.43;;;4.90;99.90;;;;;;5062228;28;20688;-70
2023/02/04 01:13:43;;;;;;;73.65;11.70;;;4.90;99.90;;;;;;5054047;28;20154;-70
2023/02/04 01:16:12;;;;;;;59.30;10.07;;;4.90;99.90;;;;;;5052166;28;20105;-71
2023/02/04 01:18:38;;;;;;;61.53;11.05;;;4.80;99.90;;;;;;5062312;28;20051;-73
2023/02/04 01:21:05;;;;;;;49.97;10.13;;;4.80;99.90;;;;;;5077440;28;20044;-70
2023/02/04 01:23:32;;;;;;;70.80;11.70;;;4.80;99.90;;;;;;5047477;28;20040;-70
2023/02/04 01:25:59;;;;;;;51.78;9.15;;;4.80;99.90;;;;;;5045403;28;20082;-70
2023/02/04 01:28:25;;;;;;;64.10;9.95;;;4.90;99.90;;;;;;5058392;28;20541;-70
2023/02/04 01:30:52;;;;;;;56.90;11.27;;;4.90;99.90;;;;;;5045933;28;20044;-71
2023/02/04 01:33:20;;;;;;;88.60;13.05;;;4.80;99.90;;;;;;5038769;28;20048;-70
2023/02/04 01:35:47;;;;;;;61.15;9.20;;;4.80;99.90;;;;;;5061514;28;20086;-71
2023/02/04 01:38:13;;;;;;;68.93;11.27;;;4.80;99.90;;;;;;5041035;28;20431;-71
2023/02/04 01:40:41;;;;;;;65.45;9.65;;;4.80;99.90;;;;;;5060918;28;20043;-71
2023/02/04 01:43:09;;;;;;;58.92;10.30;;;4.80;99.90;;;;;;5058781;28;20087;-71
2023/02/04 01:45:35;;;;;;;65.68;11.75;;;4.70;99.90;;;;;;5053309;28;20042;-71
2023/02/04 01:48:04;;;;;;;72.35;12.68;;;4.70;99.90;;;;;;5045830;28;20051;-73
2023/02/04 01:50:32;;;;;;;60.13;11.98;;;4.70;99.90;;;;;;5060574;28;20441;-75
2023/02/04 01:52:59;;;;;;;60.85;10.20;;;4.60;99.90;;;;;;5060798;28;20504;-75
2023/02/04 01:55:29;;;;;;;63.92;13.52;;;4.60;99.90;;;;;;5055043;28;20052;-73
2023/02/04 01:57:57;;;;;;;65.63;12.45;;;4.60;99.90;;;;;;5058298;28;20127;-75
2023/02/04 02:00:24;;;;;;;54.70;14.00;;;4.60;99.90;;;;;;5060969;28;20676;-74
2023/02/04 02:02:52;;;;;;;62.88;12.07;;;4.70;99.90;;;;;;5062369;28;20417;-73
2023/02/04 02:05:34;;;;;;;61.50;10.95;;;4.70;99.90;;;;;;5055822;28;20066;-74
2023/02/04 02:08:03;;;;;;;62.05;10.43;;;4.70;99.90;;;;;;5061541;28;20052;-74
2023/02/04 02:10:32;;;;;;;63.05;9.85;;;4.70;99.90;;;;;;5042097;28;20059;-74
2023/02/04 02:12:59;;;;;;;87.57;11.68;;;4.70;99.90;;;;;;5059474;28;20689;-75
2023/02/04 02:15:27;;;;;;;60.50;11.25;;;4.70;99.90;;;;;;5055687;28;20498;-76
2023/02/04 02:17:54;;;;;;;63.10;10.52;;;4.70;99.90;;;;;;5054998;28;20490;-75
2023/02/04 02:20:23;;;;;;;75.20;12.98;;;4.70;99.90;;;;;;5056845;28;20047;-75
2023/02/04 02:22:57;;;;;;;63.95;11.45;;;4.70;99.90;;;;;;5061549;28;20506;-75
2023/02/04 02:25:23;;;;;;;62.13;10.80;;;4.60;99.90;;;;;;5056988;28;21806;-75
2023/02/04 02:27:50;;;;;;;60.13;11.75;;;4.70;99.90;;;;;;5061236;28;20364;-76
2023/02/04 02:30:18;;;;;;;73.25;11.13;;;4.60;99.90;;;;;;5040213;28;20047;-76
2023/02/04 02:32:46;;;;;;;63.28;10.82;;;4.70;99.90;;;;;;5060907;28;20499;-76
2023/02/04 02:35:14;;;;;;;62.92;10.23;;;4.60;99.90;;;;;;5057517;28;20461;-75
2023/02/04 02:37:41;;;;;;;69.38;10.13;;;4.70;99.90;;;;;;5044344;28;20054;-75
2023/02/04 02:40:09;;;;;;;76.55;11.23;;;4.70;99.90;;;;;;5041230;28;20063;-75
2023/02/04 02:42:36;;;;;;;52.05;8.95;;;4.60;99.90;;;;;;5059532;28;20486;-75
2023/02/04 02:45:20;;;;;;;81.63;11.20;;;4.60;99.90;;;;;;5041562;28;20513;-75
2023/02/04 02:47:47;;;;;;;59.90;12.20;;;4.60;99.90;;;;;;5054325;28;20052;-75
2023/02/04 02:50:19;;;;;;;93.25;11.10;;;4.60;99.90;;;;;;5056128;28;20044;-74
2023/02/04 02:52:46;;;;;;;74.03;13.32;;;4.60;99.90;;;;;;5060512;28;20075;-75
2023/02/04 02:55:18;;;;;;;61.13;10.85;;;4.60;99.90;;;;;;5055751;28;20512;-74
2023/02/04 02:57:46;;;;;;;69.07;12.13;;;4.60;99.90;;;;;;5060804;28;20235;-75
2023/02/04 03:00:24;;;;;;;72.22;12.40;;;4.60;99.90;;;;;;5055844;28;20040;-75
2023/02/04 03:02:59;;;;;;;65.78;10.45;;;4.60;99.90;;;;;;5055988;28;20093;-75
2023/02/04 03:05:29;;;;;;;73.57;13.65;;;4.60;99.90;;;;;;5040861;28;20052;-74
2023/02/04 03:07:56;;;;;;;58.45;10.65;;;4.60;99.90;;;;;;5060780;28;20051;-75
2023/02/04 03:10:23;;;;;;;46.72;9.35;;;4.60;99.90;;;;;;5040372;28;20532;-75
2023/02/04 03:12:50;;;;;;;60.33;9.77;;;4.70;99.90;;;;;;5040926;28;20140;-75
2023/02/04 03:15:17;;;;;;;63.45;11.00;;;4.60;99.90;;;;;;5064069;28;20057;-76
2023/02/04 03:17:45;;;;;;;66.00;10.35;;;4.50;99.90;;;;;;5044800;28;20052;-76
2023/02/04 03:20:14;;;;;;;51.08;10.82;;;4.50;99.90;;;;;;5055057;28;20533;-76
2023/02/04 03:22:41;;;;;;;60.70;11.23;;;4.60;99.90;;;;;;5065375;28;20244;-76
2023/02/04 03:25:08;;;;;;;54.80;10.45;;;4.60;99.90;;;;;;5075375;28;20059;-76
2023/02/04 03:27:34;;;;;;;52.38;9.13;;;4.50;99.90;;;;;;5057337;28;20036;-76
2023/02/04 03:30:01;;;;;;;60.08;10.02;;;4.40;99.90;;;;;;5043478;28;20048;-76
2023/02/04 03:32:28;;;;;;;65.88;10.32;;;4.40;99.90;;;;;;5053845;28;20782;-75
2023/02/04 03:34:55;;;;;;;46.30;8.43;;;4.30;99.90;;;;;;5077000;28;20516;-76
2023/02/04 03:37:21;;;;;;;40.55;9.15;;;4.30;99.90;;;;;;5073258;28;20059;-75
2023/02/04 03:39:48;;;;;;;53.35;6.93;;;4.30;99.90;;;;;;5061503;28;20044;-75
2023/02/04 03:42:15;;;;;;;55.33;7.47;;;4.30;99.90;;;;;;5071518;28;20443;-75
2023/02/04 03:44:41;;;;;;;52.70;6.63;;;4.30;99.90;;;;;;5057058;28;20097;-75
2023/02/04 03:47:08;;;;;;;51.78;9.70;;;4.40;99.90;;;;;;5056310;28;20370;-75
2023/02/04 03:49:35;;;;;;;55.55;8.73;;;4.30;99.90;;;;;;5033456;28;20064;-75
2023/02/04 03:52:03;;;;;;;55.90;8.77;;;4.30;99.90;;;;;;5058086;28;20624;-75
2023/02/04 03:54:30;;;;;;;46.08;7.70;;;4.40;99.90;;;;;;5058339;28;20081;-76
2023/02/04 03:56:57;;;;;;;66.68;10.63;;;4.40;99.90;;;;;;5075851;28;20058;-75
2023/02/04 03:59:23;;;;;;;54.85;10.18;;;4.40;99.90;;;;;;5034126;28;21207;-74
2023/02/04 04:01:51;;;;;;;46.85;8.90;;;4.50;99.90;;;;;;5087042;22;20109;-80
2023/02/04 04:04:18;;;;;;;63.10;10.98;;;4.40;99.90;;;;;;5074726;28;20036;-80
2023/02/04 04:06:45;;;;;;;74.53;10.32;;;4.30;99.90;;;;;;5080173;28;20038;-81
2023/02/04 04:09:11;;;;;;;55.70;10.60;;;4.40;99.90;;;;;;5077045;28;20243;-82
2023/02/04 04:11:38;;;;;;;49.58;9.63;;;4.40;99.90;;;;;;5085400;28;20091;-81
2023/02/04 04:14:05;;;;;;;64.63;10.05;;;4.40;99.90;;;;;;5085214;28;20095;-81
2023/02/04 04:16:31;;;;;;;55.25;9.70;;;4.40;99.90;;;;;;5091841;28;20042;-79
2023/02/04 04:18:58;;;;;;;53.55;9.90;;;4.40;99.90;;;;;;5067860;28;20153;-80
2023/02/04 04:21:25;;;;;;;49.28;8.73;;;4.40;99.90;;;;;;5068172;28;20048;-80
2023/02/04 04:23:51;;;;;;;54.10;7.63;;;4.30;99.90;;;;;;5046623;28;20073;-80
2023/02/04 04:26:18;;;;;;;43.80;8.32;;;4.30;99.90;;;;;;5061700;28;20040;-79
2023/02/04 04:28:45;;;;;;;45.78;6.57;;;4.30;99.90;;;;;;5062400;28;20036;-79
2023/02/04 04:31:12;;;;;;;33.50;5.63;;;4.20;99.90;;;;;;5046451;28;20411;-80
2023/02/04 04:33:39;;;;;;;36.75;5.82;;;4.20;99.90;;;;;;5070644;28;20409;-80
2023/02/04 04:36:06;;;;;;;36.15;5.15;;;4.20;99.90;;;;;;5063800;28;20063;-81
2023/02/04 04:38:33;;;;;;;27.95;6.07;;;4.20;99.90;;;;;;5043412;28;20044;-79
2023/02/04 04:41:00;;;;;;;26.60;5.15;;;4.20;99.90;;;;;;5047068;28;20060;-80
2023/02/04 04:43:27;;;;;;;31.52;7.43;;;4.10;99.90;;;;;;5054737;28;20103;-79
2023/02/04 04:45:53;;;;;;;29.58;5.18;;;4.10;99.90;;;;;;5046695;28;20690;-78
2023/02/04 04:48:20;;;;;;;31.20;5.97;;;4.10;99.90;;;;;;5046401;28;20056;-79
2023/02/04 04:50:47;;;;;;;30.50;5.25;;;4.10;99.90;;;;;;5058695;28;20740;-79
2023/02/04 04:53:14;;;;;;;28.45;7.05;;;4.20;99.90;;;;;;5042635;28;20052;-79
2023/02/04 04:55:41;;;;;;;38.10;6.25;;;4.10;99.90;;;;;;5077394;28;20464;-79
2023/02/04 04:58:08;;;;;;;25.00;6.32;;;4.10;99.90;;;;;;5060157;28;20047;-79
2023/02/04 05:00:35;;;;;;;29.15;6.70;;;4.10;99.90;;;;;;5079492;28;20053;-78
2023/02/04 05:03:02;;;;;;;28.20;5.88;;;4.00;99.90;;;;;;5065169;28;20043;-81
2023/02/04 05:05:28;;;;;;;23.83;6.60;;;4.00;99.90;;;;;;5058557;28;21692;-79
2023/02/04 05:07:56;;;;;;;19.70;5.40;;;4.00;99.90;;;;;;5067097;28;20044;-80
2023/02/04 05:10:23;;;;;;;25.52;6.32;;;4.00;99.90;;;;;;5056420;28;20048;-79
2023/02/04 05:12:50;;;;;;;23.95;6.68;;;4.10;99.90;;;;;;5065495;28;20070;-77
2023/02/04 05:15:17;;;;;;;25.92;6.72;;;4.10;99.90;;;;;;5059246;28;20864;-78
2023/02/04 05:17:43;;;;;;;40.65;6.68;;;4.10;99.90;;;;;;5042133;28;20050;-78
2023/02/04 05:20:10;;;;;;;36.53;7.07;;;4.10;99.90;;;;;;5058268;22;20055;-70
2023/02/04 05:22:37;;;;;;;25.88;6.38;;;4.20;99.90;;;;;;5044079;28;20052;-72
2023/02/04 05:25:04;;;;;;;28.27;7.22;;;4.10;99.90;;;;;;5037330;28;20052;-72
2023/02/04 05:27:31;;;;;;;31.10;8.30;;;4.10;99.90;;;;;;5023563;28;20037;-72
2023/02/04 05:29:57;;;;;;;26.35;7.78;;;4.10;99.90;;;;;;5044214;28;20037;-73
2023/02/04 05:32:24;;;;;;;28.23;6.88;;;4.10;99.90;;;;;;5043925;28;20634;-72
2023/02/04 05:34:51;;;;;;;31.67;7.35;;;4.00;99.90;;;;;;5049039;28;20059;-71
2023/02/04 05:37:19;;;;;;;25.90;6.75;;;4.00;99.90;;;;;;5040385;28;20045;-73
2023/02/04 05:39:46;;;;;;;36.13;7.60;;;4.00;99.90;;;;;;5040423;28;20037;-72
2023/02/04 05:42:13;;;;;;;26.80;6.68;;;3.90;99.90;;;;;;5033330;28;20037;-74
2023/02/04 05:44:40;;;;;;;25.15;7.55;;;3.80;99.90;;;;;;5043972;28;20060;-72
2023/02/04 05:47:06;;;;;;;29.23;7.35;;;3.80;99.90;;;;;;5037762;28;20041;-71
2023/02/04 05:49:33;;;;;;;25.05;7.25;;;3.80;99.90;;;;;;5044040;28;20406;-72
2023/02/04 05:52:00;;;;;;;22.10;7.35;;;3.80;99.90;;;;;;5043427;28;20140;-72
2023/02/04 05:54:26;;;;;;;21.77;7.55;;;3.80;99.90;;;;;;5034054;28;20281;-71
2023/02/04 05:56:53;;;;;;;24.23;6.80;;;3.80;99.90;;;;;;5049390;28;20048;-72
2023/02/04 05:59:20;;;;;;;20.73;5.93;;;3.70;99.90;;;;;;5046992;28;20033;-72
2023/02/04 06:01:46;;;;;;;21.00;6.97;;;3.70;99.90;;;;;;5028097;28;20048;-74
2023/02/04 06:04:15;;;;;;;19.60;6.07;;;3.70;99.90;;;;;;5041887;28;20045;-71
2023/02/04 06:06:42;;;;;;;18.85;6.22;;;3.70;99.90;;;;;;5039923;28;20037;-72
2023/02/04 06:09:09;;;;;;;11.63;5.50;;;3.60;99.90;;;;;;5040089;28;20609;-71
2023/02/04 06:11:36;;;;;;;15.23;5.80;;;3.60;99.90;;;;;;5048824;28;20041;-72
2023/02/04 06:14:03;;;;;;;15.98;5.70;;;3.60;99.90;;;;;;5043790;28;20388;-72
2023/02/04 06:16:30;;;;;;;12.52;6.03;;;3.60;99.90;;;;;;5047560;28;20052;-72
2023/02/04 06:18:56;;;;;;;13.02;6.43;;;3.50;99.90;;;;;;5055244;28;20048;-72
2023/02/04 06:21:23;;;;;;;17.65;7.07;;;3.50;99.90;;;;;;5025895;28;20033;-71
2023/02/04 06:23:50;;;;;;;18.75;7.13;;;3.50;99.90;;;;;;5039419;28;20045;-71
2023/02/04 06:26:17;;;;;;;15.95;7.10;;;3.40;99.90;;;;;;5046077;28;20045;-72
2023/02/04 06:28:43;;;;;;;15.07;6.65;;;3.40;99.90;;;;;;5055744;28;20098;-72
2023/02/04 06:31:10;;;;;;;18.70;7.05;;;3.40;99.90;;;;;;5032551;28;20037;-71
2023/02/04 06:33:37;;;;;;;13.48;5.68;;;3.30;99.90;;;;;;5046404;28;20118;-72
2023/02/04 06:36:04;;;;;;;14.93;6.53;;;3.30;99.90;;;;;;5041578;28;20037;-71
2023/02/04 06:38:31;;;;;;;10.23;5.80;;;3.20;99.90;;;;;;5048412;28;20114;-72
2023/02/04 06:40:57;;;;;;;8.75;6.03;;;3.10;99.90;;;;;;5042000;28;20041;-72
2023/02/04 06:43:26;;;;;;;11.27;6.20;;;3.00;99.90;;;;;;5026759;28;20699;-72
2023/02/04 06:45:53;;;;;;;17.70;7.68;;;3.00;99.90;;;;;;5034246;28;20029;-71
2023/02/04 06:48:20;;;;;;;11.82;7.60;;;2.90;99.90;;;;;;5041052;28;20654;-73
2023/02/04 06:50:46;;;;;;;16.83;7.78;;;2.90;99.90;;;;;;5045417;28;20545;-73
2023/02/04 06:53:13;;;;;;;16.20;8.07;;;2.80;99.90;;;;;;5028950;28;20051;-73
2023/02/04 06:55:40;;;;;;;19.08;9.20;;;2.80;99.90;;;;;;5041570;28;20083;-74
2023/02/04 06:58:07;;;;;;;18.83;9.07;;;3.00;99.90;;;;;;5043553;28;20040;-73
2023/02/04 07:00:34;;;;;;;15.15;10.02;;;2.90;99.90;;;;;;5043201;28;20055;-73
2023/02/04 07:03:00;;;;;;;21.02;12.98;;;2.80;99.90;;;;;;5051969;28;20105;-73
2023/02/04 07:05:27;;;;;;;29.15;12.98;;;2.80;99.90;;;;;;5024129;28;20106;-73
2023/02/04 07:07:54;;;;;;;18.67;11.35;;;2.70;99.90;;;;;;5055381;28;20047;-73
2023/02/04 07:10:20;;;;;;;20.70;11.30;;;2.60;99.90;;;;;;5020445;28;20044;-73
2023/02/04 07:12:47;;;;;;;14.75;11.95;;;2.60;99.90;;;;;;5050760;28;20051;-73
2023/02/04 07:15:14;;;;;;;20.90;12.27;;;2.60;99.90;;;;;;5042548;28;20040;-73
2023/02/04 07:17:41;;;;;;;19.38;12.55;;;2.70;99.90;;;;;;5043614;28;20230;-71
2023/02/04 07:20:09;;;;;;;18.02;15.98;;;2.70;99.90;;;;;;5033859;28;20067;-74
2023/02/04 07:22:35;;;;;;;18.17;15.68;;;2.70;99.90;;;;;;5044977;28;20084;-73
2023/02/04 07:25:03;;;;;;;26.65;18.52;;;2.70;99.90;;;;;;5047964;28;20040;-73
2023/02/04 07:27:30;;;;;;;41.42;22.25;;;2.70;99.90;;;;;;5046312;28;20044;-73
2023/02/04 07:29:56;;;;;;;47.55;24.17;;;2.60;99.90;;;;;;5041225;28;20052;-73
2023/02/04 07:32:23;;;;;;;56.28;24.23;;;2.50;99.90;;;;;;5047515;28;20048;-71
2023/02/04 07:34:50;;;;;;;23.60;14.30;;;2.50;99.90;;;;;;5046711;28;23657;-71
2023/02/04 07:37:16;;;;;;;24.40;12.95;;;2.50;99.90;;;;;;5045186;28;20039;-74
2023/02/04 07:39:43;;;;;;;21.35;13.43;;;2.60;99.90;;;;;;5037208;28;20491;-71
2023/02/04 07:42:10;;;;;;;18.50;12.70;;;2.60;99.90;;;;;;5048468;28;20072;-71
2023/02/04 07:44:43;;;;;;;30.80;23.45;;;2.60;99.90;;;;;;5043628;28;20293;-71
2023/02/04 07:47:11;;;;;;;19.05;13.30;;;2.50;99.90;;;;;;5034434;28;20041;-73
2023/02/04 07:49:38;;;;;;;19.25;12.25;;;2.50;99.90;;;;;;5039801;28;20055;-71
2023/02/04 07:52:04;;;;;;;18.70;11.95;;;2.50;99.90;;;;;;5040433;28;20262;-74
2023/02/04 07:54:31;;;;;;;18.25;11.90;;;2.60;99.90;;;;;;5053206;28;20044;-74
2023/02/04 07:56:58;;;;;;;15.15;8.95;;;2.70;99.90;;;;;;5046543;28;20036;-73
2023/02/04 07:59:25;;;;;;;13.27;8.73;;;2.60;99.90;;;;;;5045254;28;21364;-73
2023/02/04 08:01:51;;;;;;;40.53;26.00;;;2.60;99.90;;;;;;5037913;28;20695;-71
2023/02/04 08:04:18;;;;;;;54.17;32.85;;;2.60;99.90;;;;;;5040040;28;20043;-71
2023/02/04 08:06:45;;;;;;;26.80;19.00;;;2.60;99.90;;;;;;5041010;28;20044;-71
2023/02/04 08:09:11;;;;;;;35.47;21.80;;;2.80;99.90;;;;;;5042431;28;20414;-71
2023/02/04 08:11:38;;;;;;;26.13;15.68;;;2.80;99.90;;;;;;5042010;28;20132;-73
2023/02/04 08:14:05;;;;;;;28.98;14.48;;;2.90;99.90;;;;;;5049101;28;20136;-72
2023/02/04 08:16:31;;;;;;;18.35;10.68;;;3.00;99.90;;;;;;5039670;28;20029;-71
2023/02/04 08:18:58;;;;;;;18.77;9.50;;;3.00;99.90;;;;;;5042696;28;20037;-71
2023/02/04 08:21:25;;;;;;;12.35;8.25;;;2.90;99.90;;;;;;5039306;28;20033;-72
2023/02/04 08:23:51;;;;;;;14.93;8.35;;;2.90;99.90;;;;;;5041406;28;20164;-72
2023/02/04 08:26:18;;;;;;;10.15;7.75;;;2.90;99.90;;;;;;5043391;28;20494;-71
2023/02/04 08:28:45;;;;;;;13.20;8.18;;;3.00;99.90;;;;;;5044327;28;20040;-71
2023/02/04 08:31:11;;;;;;;110.40;39.47;;;3.00;99.90;;;;;;5042549;28;20307;-71
2023/02/04 08:33:38;;;;;;;126.05;47.30;;;3.10;99.90;;;;;;5036219;28;20064;-72
2023/02/04 08:36:06;;;;;;;37.33;20.65;;;3.20;99.90;;;;;;5042799;28;20036;-72
2023/02/04 08:38:33;;;;;;;23.70;15.77;;;3.30;99.90;;;;;;5040397;28;20036;-72
2023/02/04 08:41:00;;;;;;;15.70;12.70;;;3.30;99.90;;;;;;5033955;28;20408;-72
2023/02/04 08:43:27;;;;;;;12.13;8.38;;;3.30;99.90;;;;;;5039064;28;20057;-71
2023/02/04 08:45:53;;;;;;;8.75;8.05;;;3.50;99.90;;;;;;5039343;28;20041;-71
2023/02/04 08:48:20;;;;;;;12.98;10.75;;;3.50;99.90;;;;;;5040483;28;20249;-71
2023/02/04 08:50:47;;;;;;;10.73;9.75;;;3.80;99.90;;;;;;5042278;28;20057;-72
2023/02/04 08:53:13;;;;;;;14.00;13.02;;;4.10;99.90;;;;;;5035530;28;20037;-72
2023/02/04 08:55:40;;;;;;;15.27;14.40;;;4.50;99.90;;;;;;5043472;28;20542;-73
2023/02/04 08:58:06;;;;;;;23.77;22.38;;;4.60;99.90;;;;;;5019232;28;20463;-71
2023/02/04 09:00:33;;;;;;;22.10;20.88;;;4.80;99.90;;;;;;5043734;28;21442;-72
2023/02/04 09:03:00;;;;;;;19.35;18.05;;;4.60;99.90;;;;;;5043938;28;20071;-72
2023/02/04 09:05:27;;;;;;;21.35;19.95;;;4.30;99.90;;;;;;5038745;28;20095;-73
2023/02/04 09:07:54;;;;;;;22.88;21.38;;;4.10;99.90;;;;;;5038405;28;20323;-73
2023/02/04 09:10:20;;;;;;;18.60;17.45;;;4.00;99.90;;;;;;5033567;28;20048;-71
2023/02/04 09:12:47;;;;;;;20.00;18.90;;;4.20;99.90;;;;;;5023176;28;20052;-74
2023/02/04 09:15:14;;;;;;;18.02;16.65;;;4.30;99.90;;;;;;5042081;28;20071;-71
2023/02/04 09:17:42;;;;;;;20.90;19.10;;;4.30;99.90;;;;;;5037194;28;20043;-74
2023/02/04 09:20:10;;;;;;;20.35;18.63;;;4.30;99.90;;;;;;5033962;28;20041;-71
2023/02/04 09:22:37;;;;;;;15.52;14.40;;;4.40;99.90;;;;;;5038511;28;20561;-71
2023/02/04 09:25:04;;;;;;;14.27;13.15;;;4.40;99.90;;;;;;5038057;28;20037;-71
2023/02/04 09:27:31;;;;;;;15.93;14.88;;;4.20;99.90;;;;;;5035554;28;20040;-71
2023/02/04 09:29:57;;;;;;;15.48;14.18;;;4.20;99.90;;;;;;5040373;28;20152;-72
2023/02/04 09:32:24;;;;;;;15.18;14.38;;;4.20;99.90;;;;;;5032849;28;20047;-72
2023/02/04 09:34:51;;;;;;;16.77;15.50;;;4.10;99.90;;;;;;5040940;28;20032;-72
2023/02/04 09:37:18;;;;;;;18.63;17.08;;;4.00;99.90;;;;;;5038759;28;20072;-72
2023/02/04 09:39:44;;;;;;;14.68;13.75;;;4.20;99.90;;;;;;5037261;28;20522;-72
2023/02/04 09:42:15;;;;;;;16.67;15.50;;;4.60;99.90;;;;;;5046784;28;20033;-72
2023/02/04 09:44:44;;;;;;;17.70;16.48;;;5.10;99.90;;;;;;5047071;28;20041;-72
2023/02/04 09:47:14;;;;;;;17.95;16.88;;;5.50;99.90;;;;;;5045598;28;20300;-72
2023/02/04 09:49:45;;;;;;;19.48;18.48;;;5.80;99.90;;;;;;5043984;28;20041;-72
2023/02/04 09:52:15;;;;;;;20.85;19.75;;;5.90;99.90;;;;;;5045413;28;20063;-72
2023/02/04 09:54:42;;;;;;;20.80;19.65;;;5.80;99.90;;;;;;5044990;28;20041;-72
2023/02/04 09:57:16;;;;;;;27.63;26.33;;;6.10;99.90;;;;;;5043120;28;20041;-72
2023/02/04 09:59:44;;;;;;;23.33;21.80;;;6.00;99.90;;;;;;5046300;28;20044;-71
2023/02/04 10:02:21;;;;;;;20.92;19.73;;;5.80;99.90;;;;;;5082489;22;20056;-78
2023/02/04 10:04:49;;;;;;;29.85;28.42;;;5.60;99.90;;;;;;5035695;28;20049;-77
2023/02/04 10:07:21;;;;;;;25.58;24.58;;;5.50;99.90;;;;;;5038334;28;20043;-79
2023/02/04 10:09:49;;;;;;;20.17;18.77;;;5.10;99.90;;;;;;5033054;28;20711;-75
2023/02/04 10:12:16;;;;;;;21.25;20.15;;;5.40;99.90;;;;;;5027533;28;20414;-76
2023/02/04 10:14:43;;;;;;;24.63;23.35;;;5.60;99.90;;;;;;5019187;28;20056;-76
2023/02/04 10:17:20;;;;;;;32.20;30.63;;;5.20;99.90;;;;;;5033670;28;20033;-75
2023/02/04 10:19:47;;;;;;;23.05;21.85;;;4.80;99.90;;;;;;5031365;28;20056;-75
2023/02/04 10:22:20;;;;;;;20.80;19.80;;;4.90;99.90;;;;;;5012335;28;20071;-77
2023/02/04 10:24:46;;;;;;;22.02;20.83;;;5.10;99.90;;;;;;5009961;28;20046;-75
2023/02/04 10:27:16;;;;;;;21.05;19.85;;;5.30;99.90;;;;;;5010811;28;20034;-77
2023/02/04 10:29:55;;;;;;;23.73;22.42;;;5.30;99.90;;;;;;5037526;28;20106;-75
2023/02/04 10:32:30;;;;;;;22.30;21.30;;;5.20;99.90;;;;;;5030506;28;20068;-77
2023/02/04 10:34:59;;;;;;;24.30;22.98;;;5.30;99.90;;;;;;5030184;28;20079;-76
2023/02/04 10:37:26;;;;;;;25.90;24.40;;;5.10;99.90;;;;;;5014068;28;21146;-76
2023/02/04 10:39:53;;;;;;;22.92;21.83;;;5.20;99.90;;;;;;5011195;28;20136;-76
2023/02/04 10:42:25;;;;;;;24.92;23.73;;;5.10;99.90;;;;;;5022441;28;20037;-75
2023/02/04 10:44:53;;;;;;;24.83;23.63;;;5.40;99.90;;;;;;5020479;28;20045;-74
2023/02/04 10:47:21;;;;;;;25.15;23.75;;;5.10;99.90;;;;;;5023980;28;20029;-76
2023/02/04 10:49:58;;;;;;;25.50;24.20;;;5.10;99.90;;;;;;5027382;28;20080;-78
2023/02/04 10:52:36;;;;;;;28.17;26.17;;;5.20;99.90;;;;;;5029435;28;20466;-78
2023/02/04 10:55:07;;;;;;;27.15;25.70;;;5.70;99.90;;;;;;5027617;28;20079;-76
2023/02/04 10:57:38;;;;;;;26.20;25.00;;;6.00;99.90;;;;;;5018616;28;20044;-75
2023/02/04 11:00:14;;;;;;;35.72;34.15;;;6.10;99.90;;;;;;5033073;28;20044;-78
2023/02/04 11:02:56;;;;;;;33.83;32.33;;;6.30;99.90;;;;;;5048059;28;20807;-78
2023/02/04 11:05:29;;;;;;;36.35;34.75;;;6.40;99.90;;;;;;5028254;28;20053;-77
2023/02/04 11:07:56;;;;;;;34.05;32.45;;;5.90;99.90;;;;;;5027335;28;20041;-78
2023/02/04 11:10:27;;;;;;;35.15;33.47;;;5.70;99.90;;;;;;5026137;28;20041;-77
2023/02/04 11:12:54;;;;;;;36.67;34.97;;;6.00;99.90;;;;;;5036193;28;20160;-78
2023/02/04 11:15:41;;;;;;;47.25;45.00;;;6.10;99.90;;;;;;5032120;28;20059;-76
2023/02/04 11:18:19;;;;;;;41.38;39.47;;;5.60;99.90;;;;;;5010934;28;20079;-77
2023/02/04 11:20:47;;;;;;;38.92;37.08;;;5.40;99.90;;;;;;5027550;28;20036;-78
2023/02/04 11:23:33;;;;;;;38.95;37.03;;;5.60;99.90;;;;;;5058769;28;20049;-77
2023/02/04 11:26:02;;;;;;;41.20;39.10;;;6.10;99.90;;;;;;5038435;28;20553;-77
2023/02/04 11:28:49;;;;;;;40.35;38.35;;;6.10;99.90;;;;;;5015159;28;20040;-78
2023/02/04 11:31:19;;;;;;;40.22;38.42;;;6.50;99.90;;;;;;5028923;28;20530;-78
2023/02/04 11:33:47;;;;;;;42.72;40.83;;;7.20;99.90;;;;;;5014593;28;20048;-77
2023/02/04 11:36:15;;;;;;;45.53;43.22;;;7.20;99.90;;;;;;5013451;28;20037;-77
2023/02/04 11:38:47;;;;;;;40.55;38.65;;;7.10;99.90;;;;;;5017670;28;20029;-78
2023/02/04 11:41:28;;;;;;;39.00;37.10;;;7.00;99.90;;;;;;5027225;28;20044;-76
2023/02/04 11:43:56;;;;;;;35.75;34.15;;;6.70;99.90;;;;;;5042990;28;20136;-78
2023/02/04 11:46:25;;;;;;;46.08;43.10;;;7.20;99.90;;;;;;5024520;28;20041;-77
2023/02/04 11:48:53;;;;;;;35.65;34.05;;;7.30;99.90;;;;;;5020859;28;20552;-77
2023/02/04 11:51:26;;;;;;;38.67;36.47;;;7.20;99.90;;;;;;5026666;28;20044;-78
2023/02/04 11:53:53;;;;;;;38.03;36.22;;;6.90;99.90;;;;;;5052811;28;20044;-77
2023/02/04 11:56:21;;;;;;;35.92;34.17;;;7.00;99.90;;;;;;5028318;28;20597;-77
2023/02/04 11:58:49;;;;;;;44.10;40.50;;;7.10;99.90;;;;;;5047122;28;20052;-77
2023/02/04 12:01:24;;;;;;;38.33;36.00;;;7.00;99.90;;;;;;5033215;28;20068;-76
2023/02/04 12:04:00;;;;;;;36.72;34.90;;;7.00;99.90;;;;;;5044932;28;20678;-76
2023/02/04 12:06:30;;;;;;;64.95;52.95;;;7.00;99.90;;;;;;5013911;28;20066;-76
2023/02/04 12:09:21;;;;;;;36.50;34.50;;;7.20;99.90;;;;;;5032510;28;20051;-77
2023/02/04 12:11:52;;;;;;;41.63;39.60;;;7.30;99.90;;;;;;5049071;28;20046;-77
2023/02/04 12:14:19;;;;;;;40.83;38.85;;;7.10;99.90;;;;;;5025163;28;20072;-77
2023/02/04 12:16:50;;;;;;;41.67;39.63;;;7.00;99.90;;;;;;5045512;28;20402;-77
2023/02/04 12:19:17;;;;;;;43.65;41.40;;;7.10;99.90;;;;;;5022164;28;20049;-77
2023/02/04 12:21:43;;;;;;;38.25;36.33;;;7.20;99.90;;;;;;5023691;28;20771;-76
2023/02/04 12:24:10;;;;;;;37.42;35.55;;;7.20;99.90;;;;;;5029048;28;20055;-76
2023/02/04 12:26:37;;;;;;;36.72;34.92;;;7.30;99.90;;;;;;5041084;28;20049;-77
2023/02/04 12:29:04;;;;;;;37.90;35.88;;;6.80;99.90;;;;;;5029880;28;20048;-77
2023/02/04 12:31:32;;;;;;;50.50;46.25;;;6.60;99.90;;;;;;5029846;28;20045;-77
2023/02/04 12:33:59;;;;;;;37.40;35.60;;;6.70;99.90;;;;;;5028641;28;20537;-77
2023/02/04 12:36:28;;;;;;;33.25;31.67;;;6.90;99.90;;;;;;5021817;28;20123;-77
2023/02/04 12:38:57;;;;;;;35.67;33.67;;;6.90;99.90;;;;;;5025352;28;20049;-77
2023/02/04 12:41:24;;;;;;;42.20;40.00;;;6.80;99.90;;;;;;5029932;28;20043;-77
2023/02/04 12:43:53;;;;;;;41.28;39.35;;;6.80;99.90;;;;;;5017407;28;20063;-77